sensor_id;sensor_type;location;lat;lon;timestamp;P1;durP1;ratioP1;P2;durP2;ratioP2
39680;SDS011;26327;42.550;23.120;2022-12-11T00:02:17;9.60;;;4.45;;
39680;SDS011;26327;42.550;23.120;2022-12-11T00:04:42;11.48;;;4.53;;
39680;SDS011;26327;42.550;23.120;2022-12-11T00:07:08;10.20;;;4.40;;
39680;SDS011;26327;42.550;23.120;2022-12-11T00:09:33;10.18;;;4.15;;
39680;SDS011;26327;42.550;23.120;2022-12-11T00:11:58;11.07;;;4.88;;
39680;SDS011;26327;42.550;23.120;2022-12-11T00:14:26;10.68;;;5.50;;
39680;SDS011;26327;42.550;23.120;2022-12-11T00:16:51;10.32;;;3.95;;
39680;SDS011;26327;42.550;23.120;2022-12-11T00:19:17;9.38;;;3.03;;
39680;SDS011;26327;42.550;23.120;2022-12-11T00:21:42;7.10;;;2.83;;
39680;SDS011;26327;42.550;23.120;2022-12-11T00:24:08;8.95;;;2.15;;
39680;SDS011;26327;42.550;23.120;2022-12-11T00:26:33;11.27;;;2.75;;
39680;SDS011;26327;42.550;23.120;2022-12-11T00:28:58;9.07;;;2.15;;
39680;SDS011;26327;42.550;23.120;2022-12-11T00:31:24;6.60;;;2.47;;
39680;SDS011;26327;42.550;23.120;2022-12-11T00:33:49;7.80;;;2.75;;
39680;SDS011;26327;42.550;23.120;2022-12-11T00:36:16;10.48;;;2.80;;
39680;SDS011;26327;42.550;23.120;2022-12-11T00:38:44;8.00;;;2.50;;
39680;SDS011;26327;42.550;23.120;2022-12-11T00:41:10;8.90;;;3.63;;
39680;SDS011;26327;42.550;23.120;2022-12-11T00:43:36;10.15;;;2.35;;
39680;SDS011;26327;42.550;23.120;2022-12-11T00:46:02;9.95;;;3.92;;
39680;SDS011;26327;42.550;23.120;2022-12-11T00:48:28;7.57;;;3.72;;
39680;SDS011;26327;42.550;23.120;2022-12-11T00:50:53;10.00;;;3.65;;
39680;SDS011;26327;42.550;23.120;2022-12-11T00:53:19;8.18;;;3.13;;
39680;SDS011;26327;42.550;23.120;2022-12-11T00:55:44;8.02;;;2.90;;
39680;SDS011;26327;42.550;23.120;2022-12-11T00:58:10;7.47;;;2.13;;
39680;SDS011;26327;42.550;23.120;2022-12-11T01:00:36;6.85;;;2.30;;
39680;SDS011;26327;42.550;23.120;2022-12-11T01:03:02;8.32;;;3.53;;
39680;SDS011;26327;42.550;23.120;2022-12-11T01:05:28;8.65;;;3.28;;
39680;SDS011;26327;42.550;23.120;2022-12-11T01:07:54;13.98;;;6.07;;
39680;SDS011;26327;42.550;23.120;2022-12-11T01:10:19;6.93;;;2.63;;
39680;SDS011;26327;42.550;23.120;2022-12-11T01:12:48;9.73;;;4.07;;
39680;SDS011;26327;42.550;23.120;2022-12-11T01:15:30;6.75;;;2.10;;
39680;SDS011;26327;42.550;23.120;2022-12-11T01:17:57;9.00;;;3.33;;
39680;SDS011;26327;42.550;23.120;2022-12-11T01:20:23;6.47;;;2.22;;
39680;SDS011;26327;42.550;23.120;2022-12-11T01:22:53;3.80;;;1.25;;
39680;SDS011;26327;42.550;23.120;2022-12-11T01:25:20;3.42;;;1.27;;
39680;SDS011;26327;42.550;23.120;2022-12-11T01:27:46;3.00;;;0.80;;
39680;SDS011;26327;42.550;23.120;2022-12-11T01:30:14;3.15;;;1.35;;
39680;SDS011;26327;42.550;23.120;2022-12-11T01:32:39;5.55;;;1.80;;
39680;SDS011;26327;42.550;23.120;2022-12-11T01:35:06;3.63;;;1.27;;
39680;SDS011;26327;42.550;23.120;2022-12-11T01:37:32;2.58;;;0.50;;
39680;SDS011;26327;42.550;23.120;2022-12-11T01:40:02;3.72;;;1.45;;
39680;SDS011;26327;42.550;23.120;2022-12-11T01:48:00;3.78;;;0.90;;
39680;SDS011;26327;42.550;23.120;2022-12-11T01:50:29;5.15;;;1.10;;
39680;SDS011;26327;42.550;23.120;2022-12-11T01:52:57;4.75;;;1.30;;
39680;SDS011;26327;42.550;23.120;2022-12-11T01:55:23;4.32;;;1.38;;
39680;SDS011;26327;42.550;23.120;2022-12-11T01:57:49;2.38;;;1.15;;
39680;SDS011;26327;42.550;23.120;2022-12-11T02:00:16;2.67;;;0.65;;
39680;SDS011;26327;42.550;23.120;2022-12-11T02:02:42;1.77;;;0.70;;
39680;SDS011;26327;42.550;23.120;2022-12-11T02:05:08;2.05;;;1.05;;
39680;SDS011;26327;42.550;23.120;2022-12-11T02:07:45;1.50;;;0.68;;
39680;SDS011;26327;42.550;23.120;2022-12-11T02:10:14;4.05;;;0.70;;
39680;SDS011;26327;42.550;23.120;2022-12-11T02:15:30;2.75;;;0.50;;
39680;SDS011;26327;42.550;23.120;2022-12-11T02:31:45;7.88;;;2.90;;
39680;SDS011;26327;42.550;23.120;2022-12-11T02:34:18;8.80;;;3.03;;
39680;SDS011;26327;42.550;23.120;2022-12-11T02:37:05;7.57;;;2.80;;
39680;SDS011;26327;42.550;23.120;2022-12-11T02:39:34;7.45;;;2.42;;
39680;SDS011;26327;42.550;23.120;2022-12-11T02:42:04;8.20;;;2.13;;
39680;SDS011;26327;42.550;23.120;2022-12-11T02:44:32;5.00;;;2.33;;
39680;SDS011;26327;42.550;23.120;2022-12-11T02:46:59;4.57;;;1.80;;
39680;SDS011;26327;42.550;23.120;2022-12-11T02:49:26;6.78;;;2.00;;
39680;SDS011;26327;42.550;23.120;2022-12-11T02:51:53;4.80;;;1.40;;
39680;SDS011;26327;42.550;23.120;2022-12-11T02:54:22;5.00;;;1.42;;
39680;SDS011;26327;42.550;23.120;2022-12-11T02:57:11;5.88;;;1.58;;
39680;SDS011;26327;42.550;23.120;2022-12-11T02:59:41;5.47;;;1.02;;
39680;SDS011;26327;42.550;23.120;2022-12-11T03:02:10;3.00;;;1.08;;
39680;SDS011;26327;42.550;23.120;2022-12-11T03:04:37;2.42;;;0.80;;
39680;SDS011;26327;42.550;23.120;2022-12-11T03:07:06;2.53;;;1.23;;
39680;SDS011;26327;42.550;23.120;2022-12-11T03:09:40;3.10;;;0.85;;
39680;SDS011;26327;42.550;23.120;2022-12-11T03:12:07;2.53;;;0.70;;
39680;SDS011;26327;42.550;23.120;2022-12-11T03:14:36;2.90;;;0.90;;
39680;SDS011;26327;42.550;23.120;2022-12-11T03:17:07;2.35;;;0.80;;
39680;SDS011;26327;42.550;23.120;2022-12-11T03:22:38;5.70;;;1.45;;
39680;SDS011;26327;42.550;23.120;2022-12-11T03:25:11;5.32;;;1.98;;
39680;SDS011;26327;42.550;23.120;2022-12-11T03:27:44;3.53;;;1.85;;
39680;SDS011;26327;42.550;23.120;2022-12-11T03:30:18;10.60;;;2.60;;
39680;SDS011;26327;42.550;23.120;2022-12-11T03:32:49;5.72;;;2.30;;
39680;SDS011;26327;42.550;23.120;2022-12-11T03:37:51;5.57;;;1.88;;
39680;SDS011;26327;42.550;23.120;2022-12-11T03:40:19;2.72;;;1.30;;
39680;SDS011;26327;42.550;23.120;2022-12-11T03:42:48;4.55;;;1.60;;
39680;SDS011;26327;42.550;23.120;2022-12-11T03:45:16;5.15;;;2.08;;
39680;SDS011;26327;42.550;23.120;2022-12-11T03:47:43;5.35;;;1.50;;
39680;SDS011;26327;42.550;23.120;2022-12-11T03:50:11;5.05;;;1.70;;
39680;SDS011;26327;42.550;23.120;2022-12-11T03:52:41;3.92;;;1.48;;
39680;SDS011;26327;42.550;23.120;2022-12-11T03:55:08;6.22;;;1.60;;
39680;SDS011;26327;42.550;23.120;2022-12-11T03:57:36;4.65;;;1.75;;
39680;SDS011;26327;42.550;23.120;2022-12-11T04:00:07;6.35;;;1.88;;
39680;SDS011;26327;42.550;23.120;2022-12-11T04:02:35;8.88;;;2.03;;
39680;SDS011;26327;42.550;23.120;2022-12-11T04:05:00;7.60;;;2.10;;
39680;SDS011;26327;42.550;23.120;2022-12-11T04:07:26;7.63;;;2.35;;
39680;SDS011;26327;42.550;23.120;2022-12-11T04:09:52;6.65;;;2.60;;
39680;SDS011;26327;42.550;23.120;2022-12-11T04:12:17;5.75;;;1.63;;
39680;SDS011;26327;42.550;23.120;2022-12-11T04:14:43;6.82;;;2.30;;
39680;SDS011;26327;42.550;23.120;2022-12-11T04:17:30;8.88;;;2.30;;
39680;SDS011;26327;42.550;23.120;2022-12-11T04:20:19;6.55;;;2.30;;
39680;SDS011;26327;42.550;23.120;2022-12-11T04:23:04;8.82;;;2.67;;
39680;SDS011;26327;42.550;23.120;2022-12-11T04:25:49;6.30;;;2.15;;
39680;SDS011;26327;42.550;23.120;2022-12-11T04:28:15;14.68;;;3.42;;
39680;SDS011;26327;42.550;23.120;2022-12-11T04:30:46;8.52;;;2.42;;
39680;SDS011;26327;42.550;23.120;2022-12-11T04:33:13;9.27;;;2.95;;
39680;SDS011;26327;42.550;23.120;2022-12-11T04:35:39;11.88;;;2.72;;
39680;SDS011;26327;42.550;23.120;2022-12-11T04:38:06;13.02;;;3.85;;
39680;SDS011;26327;42.550;23.120;2022-12-11T04:40:32;11.60;;;2.50;;
39680;SDS011;26327;42.550;23.120;2022-12-11T04:42:57;10.80;;;3.15;;
39680;SDS011;26327;42.550;23.120;2022-12-11T04:45:23;14.30;;;3.47;;
39680;SDS011;26327;42.550;23.120;2022-12-11T04:47:48;13.38;;;2.70;;
39680;SDS011;26327;42.550;23.120;2022-12-11T04:50:14;10.30;;;3.55;;
39680;SDS011;26327;42.550;23.120;2022-12-11T04:52:39;10.02;;;3.40;;
39680;SDS011;26327;42.550;23.120;2022-12-11T04:55:06;12.13;;;2.63;;
39680;SDS011;26327;42.550;23.120;2022-12-11T04:57:32;14.80;;;3.33;;
39680;SDS011;26327;42.550;23.120;2022-12-11T04:59:58;7.30;;;2.50;;
39680;SDS011;26327;42.550;23.120;2022-12-11T05:02:24;11.25;;;2.53;;
39680;SDS011;26327;42.550;23.120;2022-12-11T05:04:50;10.57;;;3.58;;
39680;SDS011;26327;42.550;23.120;2022-12-11T05:07:16;12.55;;;3.13;;
39680;SDS011;26327;42.550;23.120;2022-12-11T05:09:41;13.57;;;3.28;;
39680;SDS011;26327;42.550;23.120;2022-12-11T05:12:06;10.48;;;3.40;;
39680;SDS011;26327;42.550;23.120;2022-12-11T05:14:32;11.90;;;3.85;;
39680;SDS011;26327;42.550;23.120;2022-12-11T05:16:58;15.02;;;4.50;;
39680;SDS011;26327;42.550;23.120;2022-12-11T05:19:24;6.28;;;2.10;;
39680;SDS011;26327;42.550;23.120;2022-12-11T05:21:49;12.88;;;3.95;;
39680;SDS011;26327;42.550;23.120;2022-12-11T05:24:15;11.32;;;3.65;;
39680;SDS011;26327;42.550;23.120;2022-12-11T05:26:40;11.50;;;4.53;;
39680;SDS011;26327;42.550;23.120;2022-12-11T05:29:06;18.40;;;5.50;;
39680;SDS011;26327;42.550;23.120;2022-12-11T05:31:31;15.63;;;4.88;;
39680;SDS011;26327;42.550;23.120;2022-12-11T05:33:56;10.43;;;2.92;;
39680;SDS011;26327;42.550;23.120;2022-12-11T05:36:24;10.95;;;3.58;;
39680;SDS011;26327;42.550;23.120;2022-12-11T05:38:51;11.60;;;4.20;;
39680;SDS011;26327;42.550;23.120;2022-12-11T05:41:18;8.77;;;2.50;;
39680;SDS011;26327;42.550;23.120;2022-12-11T05:43:45;15.45;;;5.07;;
39680;SDS011;26327;42.550;23.120;2022-12-11T05:46:14;10.93;;;4.78;;
39680;SDS011;26327;42.550;23.120;2022-12-11T05:48:43;11.13;;;4.00;;
39680;SDS011;26327;42.550;23.120;2022-12-11T05:51:10;11.75;;;3.63;;
39680;SDS011;26327;42.550;23.120;2022-12-11T05:53:37;18.08;;;7.07;;
39680;SDS011;26327;42.550;23.120;2022-12-11T05:56:05;15.98;;;4.00;;
39680;SDS011;26327;42.550;23.120;2022-12-11T05:58:41;12.07;;;3.92;;
39680;SDS011;26327;42.550;23.120;2022-12-11T06:01:50;15.63;;;6.53;;
39680;SDS011;26327;42.550;23.120;2022-12-11T06:03:58;12.52;;;4.28;;
39680;SDS011;26327;42.550;23.120;2022-12-11T06:06:24;11.25;;;3.80;;
39680;SDS011;26327;42.550;23.120;2022-12-11T06:08:51;14.10;;;4.13;;
39680;SDS011;26327;42.550;23.120;2022-12-11T06:11:18;9.27;;;3.85;;
39680;SDS011;26327;42.550;23.120;2022-12-11T06:13:43;15.70;;;4.35;;
39680;SDS011;26327;42.550;23.120;2022-12-11T06:16:09;25.02;;;5.63;;
39680;SDS011;26327;42.550;23.120;2022-12-11T06:18:35;15.90;;;4.80;;
39680;SDS011;26327;42.550;23.120;2022-12-11T06:21:01;18.23;;;4.95;;
39680;SDS011;26327;42.550;23.120;2022-12-11T06:23:35;10.00;;;3.75;;
39680;SDS011;26327;42.550;23.120;2022-12-11T06:26:02;11.68;;;4.50;;
39680;SDS011;26327;42.550;23.120;2022-12-11T06:28:27;14.15;;;4.03;;
39680;SDS011;26327;42.550;23.120;2022-12-11T06:30:53;19.08;;;6.13;;
39680;SDS011;26327;42.550;23.120;2022-12-11T06:33:18;17.17;;;6.97;;
39680;SDS011;26327;42.550;23.120;2022-12-11T06:35:44;17.13;;;5.15;;
39680;SDS011;26327;42.550;23.120;2022-12-11T06:38:09;16.02;;;5.60;;
39680;SDS011;26327;42.550;23.120;2022-12-11T06:40:34;7.15;;;2.92;;
39680;SDS011;26327;42.550;23.120;2022-12-11T06:43:00;9.80;;;3.53;;
39680;SDS011;26327;42.550;23.120;2022-12-11T06:45:25;13.15;;;4.15;;
39680;SDS011;26327;42.550;23.120;2022-12-11T06:47:51;10.27;;;4.22;;
39680;SDS011;26327;42.550;23.120;2022-12-11T06:50:16;13.82;;;2.83;;
39680;SDS011;26327;42.550;23.120;2022-12-11T06:52:41;8.40;;;3.33;;
39680;SDS011;26327;42.550;23.120;2022-12-11T06:55:07;11.07;;;2.30;;
39680;SDS011;26327;42.550;23.120;2022-12-11T06:57:32;11.77;;;4.80;;
39680;SDS011;26327;42.550;23.120;2022-12-11T06:59:58;13.13;;;3.50;;
39680;SDS011;26327;42.550;23.120;2022-12-11T07:02:24;6.25;;;1.60;;
39680;SDS011;26327;42.550;23.120;2022-12-11T07:04:49;8.23;;;2.70;;
39680;SDS011;26327;42.550;23.120;2022-12-11T07:07:15;6.45;;;2.25;;
39680;SDS011;26327;42.550;23.120;2022-12-11T07:09:40;8.57;;;2.42;;
39680;SDS011;26327;42.550;23.120;2022-12-11T07:12:06;6.65;;;1.88;;
39680;SDS011;26327;42.550;23.120;2022-12-11T07:14:31;9.27;;;3.95;;
39680;SDS011;26327;42.550;23.120;2022-12-11T07:16:57;7.68;;;2.63;;
39680;SDS011;26327;42.550;23.120;2022-12-11T07:19:23;9.07;;;3.47;;
39680;SDS011;26327;42.550;23.120;2022-12-11T07:21:49;13.98;;;4.03;;
39680;SDS011;26327;42.550;23.120;2022-12-11T07:24:15;7.85;;;2.78;;
39680;SDS011;26327;42.550;23.120;2022-12-11T07:26:41;8.50;;;2.65;;
39680;SDS011;26327;42.550;23.120;2022-12-11T07:29:06;9.15;;;3.35;;
39680;SDS011;26327;42.550;23.120;2022-12-11T07:31:33;10.55;;;2.83;;
39680;SDS011;26327;42.550;23.120;2022-12-11T07:34:00;8.40;;;3.33;;
39680;SDS011;26327;42.550;23.120;2022-12-11T07:36:27;10.27;;;2.20;;
39680;SDS011;26327;42.550;23.120;2022-12-11T07:38:54;7.72;;;3.03;;
39680;SDS011;26327;42.550;23.120;2022-12-11T07:41:20;10.05;;;4.05;;
39680;SDS011;26327;42.550;23.120;2022-12-11T07:43:47;5.22;;;1.85;;
39680;SDS011;26327;42.550;23.120;2022-12-11T07:46:14;9.82;;;2.72;;
39680;SDS011;26327;42.550;23.120;2022-12-11T07:48:42;9.10;;;2.92;;
39680;SDS011;26327;42.550;23.120;2022-12-11T07:51:13;7.85;;;2.10;;
39680;SDS011;26327;42.550;23.120;2022-12-11T07:53:43;10.43;;;2.75;;
39680;SDS011;26327;42.550;23.120;2022-12-11T07:56:10;12.75;;;4.38;;
39680;SDS011;26327;42.550;23.120;2022-12-11T07:58:36;13.07;;;6.07;;
39680;SDS011;26327;42.550;23.120;2022-12-11T08:01:03;19.05;;;7.18;;
39680;SDS011;26327;42.550;23.120;2022-12-11T08:03:29;9.13;;;3.75;;
39680;SDS011;26327;42.550;23.120;2022-12-11T08:05:55;7.28;;;2.72;;
39680;SDS011;26327;42.550;23.120;2022-12-11T08:08:20;5.78;;;2.83;;
39680;SDS011;26327;42.550;23.120;2022-12-11T08:10:46;7.70;;;3.22;;
39680;SDS011;26327;42.550;23.120;2022-12-11T08:13:11;8.93;;;4.13;;
39680;SDS011;26327;42.550;23.120;2022-12-11T08:15:36;6.47;;;1.73;;
39680;SDS011;26327;42.550;23.120;2022-12-11T08:18:02;22.25;;;10.32;;
39680;SDS011;26327;42.550;23.120;2022-12-11T08:20:28;9.57;;;2.90;;
39680;SDS011;26327;42.550;23.120;2022-12-11T08:22:54;6.72;;;2.45;;
39680;SDS011;26327;42.550;23.120;2022-12-11T08:25:20;10.70;;;4.90;;
39680;SDS011;26327;42.550;23.120;2022-12-11T08:27:45;30.00;;;13.27;;
39680;SDS011;26327;42.550;23.120;2022-12-11T08:30:11;7.93;;;2.72;;
39680;SDS011;26327;42.550;23.120;2022-12-11T08:32:36;28.25;;;14.18;;
39680;SDS011;26327;42.550;23.120;2022-12-11T08:35:02;6.70;;;3.22;;
39680;SDS011;26327;42.550;23.120;2022-12-11T08:37:28;15.93;;;7.82;;
39680;SDS011;26327;42.550;23.120;2022-12-11T08:39:56;33.50;;;18.40;;
39680;SDS011;26327;42.550;23.120;2022-12-11T08:42:22;28.50;;;16.23;;
39680;SDS011;26327;42.550;23.120;2022-12-11T08:44:47;16.35;;;9.30;;
39680;SDS011;26327;42.550;23.120;2022-12-11T08:47:13;9.38;;;5.05;;
39680;SDS011;26327;42.550;23.120;2022-12-11T08:49:39;22.05;;;12.65;;
39680;SDS011;26327;42.550;23.120;2022-12-11T08:52:04;4.15;;;1.63;;
39680;SDS011;26327;42.550;23.120;2022-12-11T08:54:30;7.70;;;3.63;;
39680;SDS011;26327;42.550;23.120;2022-12-11T08:56:56;12.25;;;4.75;;
39680;SDS011;26327;42.550;23.120;2022-12-11T08:59:21;9.63;;;3.90;;
39680;SDS011;26327;42.550;23.120;2022-12-11T09:01:48;7.05;;;3.35;;
39680;SDS011;26327;42.550;23.120;2022-12-11T09:04:16;15.02;;;8.07;;
39680;SDS011;26327;42.550;23.120;2022-12-11T09:06:42;10.23;;;3.80;;
39680;SDS011;26327;42.550;23.120;2022-12-11T09:09:07;12.27;;;5.80;;
39680;SDS011;26327;42.550;23.120;2022-12-11T09:11:34;10.13;;;5.20;;
39680;SDS011;26327;42.550;23.120;2022-12-11T09:14:01;15.63;;;6.43;;
39680;SDS011;26327;42.550;23.120;2022-12-11T09:16:27;27.75;;;13.70;;
39680;SDS011;26327;42.550;23.120;2022-12-11T09:18:53;9.50;;;4.57;;
39680;SDS011;26327;42.550;23.120;2022-12-11T09:21:22;14.98;;;6.82;;
39680;SDS011;26327;42.550;23.120;2022-12-11T09:23:53;13.05;;;3.22;;
39680;SDS011;26327;42.550;23.120;2022-12-11T09:26:20;6.50;;;2.50;;
39680;SDS011;26327;42.550;23.120;2022-12-11T09:28:47;14.65;;;4.53;;
39680;SDS011;26327;42.550;23.120;2022-12-11T09:31:19;14.65;;;5.00;;
39680;SDS011;26327;42.550;23.120;2022-12-11T09:33:50;12.15;;;7.25;;
39680;SDS011;26327;42.550;23.120;2022-12-11T09:36:18;12.25;;;4.50;;
39680;SDS011;26327;42.550;23.120;2022-12-11T09:38:44;12.90;;;3.58;;
39680;SDS011;26327;42.550;23.120;2022-12-11T09:43:48;7.18;;;3.17;;
39680;SDS011;26327;42.550;23.120;2022-12-11T09:46:27;7.38;;;3.53;;
39680;SDS011;26327;42.550;23.120;2022-12-11T09:48:54;8.95;;;3.40;;
39680;SDS011;26327;42.550;23.120;2022-12-11T09:51:24;4.88;;;2.10;;
39680;SDS011;26327;42.550;23.120;2022-12-11T09:53:54;5.65;;;3.83;;
39680;SDS011;26327;42.550;23.120;2022-12-11T10:02:13;8.50;;;5.03;;
39680;SDS011;26327;42.550;23.120;2022-12-11T10:18:17;8.55;;;3.75;;
39680;SDS011;26327;42.550;23.120;2022-12-11T10:20:46;9.02;;;3.05;;
39680;SDS011;26327;42.550;23.120;2022-12-11T10:23:16;6.80;;;3.08;;
39680;SDS011;26327;42.550;23.120;2022-12-11T10:25:47;3.83;;;2.70;;
39680;SDS011;26327;42.550;23.120;2022-12-11T10:28:18;4.60;;;2.55;;
39680;SDS011;26327;42.550;23.120;2022-12-11T10:30:49;5.65;;;3.60;;
39680;SDS011;26327;42.550;23.120;2022-12-11T10:36:14;8.20;;;4.15;;
39680;SDS011;26327;42.550;23.120;2022-12-11T10:38:49;6.50;;;3.90;;
39680;SDS011;26327;42.550;23.120;2022-12-11T10:41:18;3.58;;;1.75;;
39680;SDS011;26327;42.550;23.120;2022-12-11T10:43:49;7.90;;;2.92;;
39680;SDS011;26327;42.550;23.120;2022-12-11T10:46:27;6.35;;;2.90;;
39680;SDS011;26327;42.550;23.120;2022-12-11T10:48:56;6.85;;;3.30;;
39680;SDS011;26327;42.550;23.120;2022-12-11T10:51:24;4.40;;;2.50;;
39680;SDS011;26327;42.550;23.120;2022-12-11T10:54:04;6.53;;;3.85;;
39680;SDS011;26327;42.550;23.120;2022-12-11T10:56:32;6.90;;;3.53;;
39680;SDS011;26327;42.550;23.120;2022-12-11T10:59:01;7.93;;;4.40;;
39680;SDS011;26327;42.550;23.120;2022-12-11T11:01:28;6.00;;;4.32;;
39680;SDS011;26327;42.550;23.120;2022-12-11T11:04:03;6.75;;;4.30;;
39680;SDS011;26327;42.550;23.120;2022-12-11T11:06:31;7.70;;;4.93;;
39680;SDS011;26327;42.550;23.120;2022-12-11T11:08:57;6.45;;;4.38;;
39680;SDS011;26327;42.550;23.120;2022-12-11T11:14:17;8.63;;;4.18;;
39680;SDS011;26327;42.550;23.120;2022-12-11T11:16:45;10.02;;;3.60;;
39680;SDS011;26327;42.550;23.120;2022-12-11T11:19:29;4.40;;;2.42;;
39680;SDS011;26327;42.550;23.120;2022-12-11T11:22:01;12.70;;;8.85;;
39680;SDS011;26327;42.550;23.120;2022-12-11T11:24:40;7.68;;;4.70;;
39680;SDS011;26327;42.550;23.120;2022-12-11T11:27:13;10.97;;;5.73;;
39680;SDS011;26327;42.550;23.120;2022-12-11T11:29:55;6.90;;;3.38;;
39680;SDS011;26327;42.550;23.120;2022-12-11T11:32:33;13.75;;;8.63;;
39680;SDS011;26327;42.550;23.120;2022-12-11T11:37:38;8.00;;;3.47;;
39680;SDS011;26327;42.550;23.120;2022-12-11T11:40:07;6.38;;;4.15;;
39680;SDS011;26327;42.550;23.120;2022-12-11T11:42:55;5.20;;;3.08;;
39680;SDS011;26327;42.550;23.120;2022-12-11T11:45:28;13.73;;;7.65;;
39680;SDS011;26327;42.550;23.120;2022-12-11T11:51:06;7.55;;;2.63;;
39680;SDS011;26327;42.550;23.120;2022-12-11T11:53:56;10.13;;;5.43;;
39680;SDS011;26327;42.550;23.120;2022-12-11T11:56:30;9.57;;;4.22;;
39680;SDS011;26327;42.550;23.120;2022-12-11T12:01:30;19.45;;;6.85;;
39680;SDS011;26327;42.550;23.120;2022-12-11T12:03:56;26.52;;;10.65;;
39680;SDS011;26327;42.550;23.120;2022-12-11T12:36:54;39.65;;;19.58;;
39680;SDS011;26327;42.550;23.120;2022-12-11T12:40:33;41.88;;;21.67;;
39680;SDS011;26327;42.550;23.120;2022-12-11T12:48:50;7.07;;;2.80;;
39680;SDS011;26327;42.550;23.120;2022-12-11T12:51:16;16.15;;;6.93;;
39680;SDS011;26327;42.550;23.120;2022-12-11T12:53:52;8.82;;;3.90;;
39680;SDS011;26327;42.550;23.120;2022-12-11T12:56:26;9.80;;;4.45;;
39680;SDS011;26327;42.550;23.120;2022-12-11T12:58:53;8.45;;;4.18;;
39680;SDS011;26327;42.550;23.120;2022-12-11T13:01:21;7.40;;;3.33;;
39680;SDS011;26327;42.550;23.120;2022-12-11T13:09:18;11.38;;;4.75;;
39680;SDS011;26327;42.550;23.120;2022-12-11T13:11:49;12.73;;;5.68;;
39680;SDS011;26327;42.550;23.120;2022-12-11T13:14:28;13.60;;;5.55;;
39680;SDS011;26327;42.550;23.120;2022-12-11T13:19:46;7.05;;;3.83;;
39680;SDS011;26327;42.550;23.120;2022-12-11T13:22:23;11.52;;;5.85;;
39680;SDS011;26327;42.550;23.120;2022-12-11T13:32:38;12.48;;;4.70;;
39680;SDS011;26327;42.550;23.120;2022-12-11T13:35:05;6.43;;;3.42;;
39680;SDS011;26327;42.550;23.120;2022-12-11T13:37:39;8.38;;;4.70;;
39680;SDS011;26327;42.550;23.120;2022-12-11T13:40:18;9.50;;;4.45;;
39680;SDS011;26327;42.550;23.120;2022-12-11T13:42:48;7.85;;;3.20;;
39680;SDS011;26327;42.550;23.120;2022-12-11T13:45:29;7.72;;;4.15;;
39680;SDS011;26327;42.550;23.120;2022-12-11T13:48:19;11.07;;;3.28;;
39680;SDS011;26327;42.550;23.120;2022-12-11T13:50:49;5.85;;;2.88;;
39680;SDS011;26327;42.550;23.120;2022-12-11T13:53:17;6.18;;;2.88;;
39680;SDS011;26327;42.550;23.120;2022-12-11T13:55:43;8.75;;;3.63;;
39680;SDS011;26327;42.550;23.120;2022-12-11T13:58:14;12.68;;;5.85;;
39680;SDS011;26327;42.550;23.120;2022-12-11T14:00:42;11.23;;;3.97;;
39680;SDS011;26327;42.550;23.120;2022-12-11T14:03:18;4.90;;;1.92;;
39680;SDS011;26327;42.550;23.120;2022-12-11T14:05:43;11.95;;;7.90;;
39680;SDS011;26327;42.550;23.120;2022-12-11T14:08:09;16.90;;;10.60;;
39680;SDS011;26327;42.550;23.120;2022-12-11T14:10:43;10.10;;;7.10;;
39680;SDS011;26327;42.550;23.120;2022-12-11T14:13:30;27.17;;;13.68;;
39680;SDS011;26327;42.550;23.120;2022-12-11T14:15:59;26.02;;;12.88;;
39680;SDS011;26327;42.550;23.120;2022-12-11T14:18:26;7.88;;;3.58;;
39680;SDS011;26327;42.550;23.120;2022-12-11T14:23:23;9.98;;;4.80;;
39680;SDS011;26327;42.550;23.120;2022-12-11T14:28:28;7.50;;;2.08;;
39680;SDS011;26327;42.550;23.120;2022-12-11T14:30:59;4.32;;;1.88;;
39680;SDS011;26327;42.550;23.120;2022-12-11T14:33:29;6.13;;;2.85;;
39680;SDS011;26327;42.550;23.120;2022-12-11T14:35:58;5.15;;;2.03;;
39680;SDS011;26327;42.550;23.120;2022-12-11T14:38:26;6.82;;;2.60;;
39680;SDS011;26327;42.550;23.120;2022-12-11T14:40:58;10.80;;;4.82;;
39680;SDS011;26327;42.550;23.120;2022-12-11T14:43:41;6.72;;;3.28;;
39680;SDS011;26327;42.550;23.120;2022-12-11T14:46:14;6.70;;;3.13;;
39680;SDS011;26327;42.550;23.120;2022-12-11T14:48:47;6.72;;;3.15;;
39680;SDS011;26327;42.550;23.120;2022-12-11T14:51:21;4.43;;;2.42;;
39680;SDS011;26327;42.550;23.120;2022-12-11T14:53:48;13.00;;;6.05;;
39680;SDS011;26327;42.550;23.120;2022-12-11T14:56:18;8.07;;;3.80;;
39680;SDS011;26327;42.550;23.120;2022-12-11T14:59:13;7.50;;;3.17;;
39680;SDS011;26327;42.550;23.120;2022-12-11T15:01:43;17.80;;;6.50;;
39680;SDS011;26327;42.550;23.120;2022-12-11T15:06:49;28.52;;;10.55;;
39680;SDS011;26327;42.550;23.120;2022-12-11T15:09:17;20.23;;;8.80;;
39680;SDS011;26327;42.550;23.120;2022-12-11T15:11:43;35.83;;;17.05;;
39680;SDS011;26327;42.550;23.120;2022-12-11T15:14:10;20.67;;;11.25;;
39680;SDS011;26327;42.550;23.120;2022-12-11T15:16:38;22.70;;;11.95;;
39680;SDS011;26327;42.550;23.120;2022-12-11T15:19:05;41.78;;;22.05;;
39680;SDS011;26327;42.550;23.120;2022-12-11T15:21:40;99.80;;;47.35;;
39680;SDS011;26327;42.550;23.120;2022-12-11T15:24:05;54.78;;;27.20;;
39680;SDS011;26327;42.550;23.120;2022-12-11T15:26:45;22.83;;;10.20;;
39680;SDS011;26327;42.550;23.120;2022-12-11T15:31:59;125.70;;;53.33;;
39680;SDS011;26327;42.550;23.120;2022-12-11T15:37:24;87.72;;;34.10;;
39680;SDS011;26327;42.550;23.120;2022-12-11T15:39:59;53.95;;;21.65;;
39680;SDS011;26327;42.550;23.120;2022-12-11T15:44:54;4.88;;;1.33;;
39680;SDS011;26327;42.550;23.120;2022-12-11T15:47:22;41.55;;;16.35;;
39680;SDS011;26327;42.550;23.120;2022-12-11T15:50:01;74.28;;;39.95;;
39680;SDS011;26327;42.550;23.120;2022-12-11T15:52:49;74.75;;;35.40;;
39680;SDS011;26327;42.550;23.120;2022-12-11T15:55:15;14.40;;;4.90;;
39680;SDS011;26327;42.550;23.120;2022-12-11T15:57:46;9.45;;;4.30;;
39680;SDS011;26327;42.550;23.120;2022-12-11T16:00:18;41.17;;;20.13;;
39680;SDS011;26327;42.550;23.120;2022-12-11T16:02:45;76.00;;;41.00;;
39680;SDS011;26327;42.550;23.120;2022-12-11T16:05:12;39.33;;;22.55;;
39680;SDS011;26327;42.550;23.120;2022-12-11T16:07:38;53.45;;;31.20;;
39680;SDS011;26327;42.550;23.120;2022-12-11T16:10:04;85.47;;;47.75;;
39680;SDS011;26327;42.550;23.120;2022-12-11T16:12:30;39.33;;;18.75;;
39680;SDS011;26327;42.550;23.120;2022-12-11T16:14:56;50.08;;;22.30;;
39680;SDS011;26327;42.550;23.120;2022-12-11T16:17:22;121.35;;;60.25;;
39680;SDS011;26327;42.550;23.120;2022-12-11T16:19:48;183.90;;;85.15;;
39680;SDS011;26327;42.550;23.120;2022-12-11T16:22:14;126.38;;;51.13;;
39680;SDS011;26327;42.550;23.120;2022-12-11T16:24:40;16.35;;;9.25;;
39680;SDS011;26327;42.550;23.120;2022-12-11T16:27:06;86.95;;;44.90;;
39680;SDS011;26327;42.550;23.120;2022-12-11T16:29:37;79.65;;;44.40;;
39680;SDS011;26327;42.550;23.120;2022-12-11T16:32:04;61.80;;;35.58;;
39680;SDS011;26327;42.550;23.120;2022-12-11T16:34:32;37.05;;;22.33;;
39680;SDS011;26327;42.550;23.120;2022-12-11T16:36:58;55.05;;;30.92;;
39680;SDS011;26327;42.550;23.120;2022-12-11T16:39:24;72.75;;;38.35;;
39680;SDS011;26327;42.550;23.120;2022-12-11T16:41:50;9.82;;;5.35;;
39680;SDS011;26327;42.550;23.120;2022-12-11T16:44:19;23.17;;;11.23;;
39680;SDS011;26327;42.550;23.120;2022-12-11T16:46:46;34.63;;;17.25;;
39680;SDS011;26327;42.550;23.120;2022-12-11T16:49:12;42.33;;;20.92;;